createdAt,value
2023-04-09T00:00:43.633Z,4.89
2023-04-09T00:03:10.885Z,4.89
2023-04-09T00:05:41.133Z,4.90
2023-04-09T00:08:08.102Z,4.94
2023-04-09T00:10:35.392Z,4.96
2023-04-09T00:13:02.282Z,4.91
2023-04-09T00:15:31.561Z,4.80
2023-04-09T00:17:59.672Z,4.70
2023-04-09T00:20:26.754Z,4.69
2023-04-09T00:22:54.234Z,4.69
2023-04-09T00:25:21.143Z,4.70
2023-04-09T00:27:48.025Z,4.64
2023-04-09T00:30:15.087Z,4.43
2023-04-09T00:32:42.242Z,4.20
2023-04-09T00:35:09.534Z,4.24
2023-04-09T00:37:36.474Z,4.26
2023-04-09T00:40:03.947Z,4.27
2023-04-09T00:42:34.843Z,4.27
2023-04-09T00:45:02.140Z,4.28
2023-04-09T00:47:31.039Z,4.19
2023-04-09T00:49:58.129Z,4.02
2023-04-09T00:52:25.384Z,3.88
2023-04-09T00:54:52.571Z,3.76
2023-04-09T00:57:19.792Z,3.73
2023-04-09T00:59:46.784Z,3.72
2023-04-09T01:02:13.931Z,3.71
2023-04-09T01:04:41.776Z,3.65
2023-04-09T01:07:23.779Z,3.52
2023-04-09T01:10:06.079Z,3.39
2023-04-09T01:12:56.561Z,3.23
2023-04-09T01:15:26.978Z,3.21
2023-04-09T01:18:02.104Z,3.22
2023-04-09T01:20:57.548Z,3.24
2023-04-09T01:23:58.231Z,3.22
2023-04-09T01:27:04.189Z,3.33
2023-04-09T01:29:51.966Z,3.44
2023-04-09T01:32:19.076Z,3.49
2023-04-09T01:34:46.551Z,3.39
2023-04-09T01:37:13.468Z,3.28
2023-04-09T01:39:40.613Z,3.29
2023-04-09T01:42:11.233Z,3.22
2023-04-09T01:44:41.603Z,3.13
2023-04-09T01:47:08.962Z,3.07
2023-04-09T01:49:36.155Z,3.06
2023-04-09T01:52:03.206Z,3.07
2023-04-09T01:54:30.322Z,2.96
2023-04-09T01:56:57.781Z,2.89
2023-04-09T01:59:24.838Z,2.88
2023-04-09T02:02:03.052Z,2.88
2023-04-09T02:04:39.349Z,2.90
2023-04-09T02:07:30.983Z,2.97
2023-04-09T02:09:58.497Z,3.04
2023-04-09T02:12:25.445Z,2.99
2023-04-09T02:14:52.595Z,2.84
2023-04-09T02:17:19.621Z,2.71
2023-04-09T02:19:47.356Z,2.65
2023-04-09T02:22:15.175Z,2.66
2023-04-09T02:24:42.219Z,2.74
2023-04-09T02:27:09.249Z,2.74
2023-04-09T02:29:38.350Z,2.68
2023-04-09T02:32:05.475Z,2.59
2023-04-09T02:34:32.501Z,2.52
2023-04-09T02:36:59.647Z,2.48
2023-04-09T02:39:27.417Z,2.49
2023-04-09T02:41:54.370Z,2.47
2023-04-09T02:44:21.300Z,2.44
2023-04-09T02:46:49.528Z,2.39
2023-04-09T02:49:16.812Z,2.35
2023-04-09T02:51:43.771Z,2.31
2023-04-09T02:54:10.856Z,2.34
2023-04-09T02:56:37.862Z,2.34
2023-04-09T02:59:04.874Z,2.34
2023-04-09T03:01:31.981Z,2.34
2023-04-09T03:04:00.152Z,2.36
2023-04-09T03:06:27.180Z,2.36
2023-04-09T03:08:54.134Z,2.33
2023-04-09T03:11:21.132Z,2.34
2023-04-09T03:13:48.149Z,2.38
2023-04-09T03:16:15.123Z,2.47
2023-04-09T03:18:42.165Z,2.53
2023-04-09T03:21:09.340Z,2.58
2023-04-09T03:23:39.554Z,2.61
2023-04-09T03:26:07.846Z,2.66
2023-04-09T03:28:42.575Z,2.72
2023-04-09T03:31:09.703Z,2.77
2023-04-09T03:33:38.957Z,2.78
2023-04-09T03:36:06.638Z,2.86
2023-04-09T03:38:54.605Z,2.92
2023-04-09T03:41:43.648Z,2.95
2023-04-09T03:44:14.419Z,2.94
2023-04-09T03:47:13.662Z,3.00
2023-04-09T03:49:40.781Z,3.11
2023-04-09T03:52:16.619Z,3.23
2023-04-09T03:54:46.846Z,3.29
2023-04-09T03:57:18.726Z,3.37
2023-04-09T03:59:48.954Z,3.38
2023-04-09T04:02:19.318Z,3.47
2023-04-09T04:04:54.591Z,3.57
2023-04-09T04:07:23.404Z,3.69
2023-04-09T04:09:58.068Z,3.79
2023-04-09T04:12:25.086Z,3.89
2023-04-09T04:15:03.142Z,4.03
2023-04-09T04:17:38.242Z,4.16
2023-04-09T04:20:12.777Z,4.23
2023-04-09T04:22:52.400Z,4.31
2023-04-09T04:25:20.674Z,4.40
2023-04-09T04:27:48.148Z,4.58
2023-04-09T04:30:17.662Z,4.72
2023-04-09T04:32:56.117Z,4.84
2023-04-09T04:35:23.530Z,4.93
2023-04-09T04:37:54.175Z,5.04
2023-04-09T04:40:22.093Z,5.16
2023-04-09T04:42:55.770Z,5.31
2023-04-09T04:45:22.772Z,5.47
2023-04-09T04:47:57.709Z,5.65
2023-04-09T04:50:24.741Z,5.89
2023-04-09T04:52:57.348Z,6.13
2023-04-09T04:55:28.202Z,6.32
2023-04-09T04:57:55.865Z,6.49
2023-04-09T05:00:26.139Z,6.60
2023-04-09T05:02:53.569Z,6.70
2023-04-09T05:05:41.217Z,6.90
2023-04-09T05:08:08.830Z,7.08
2023-04-09T05:10:35.981Z,7.27
2023-04-09T05:13:03.063Z,7.49
2023-04-09T05:15:40.871Z,7.68
2023-04-09T05:18:08.925Z,7.80
2023-04-09T05:20:36.647Z,7.96
2023-04-09T05:23:10.281Z,8.11
2023-04-09T05:25:41.595Z,8.22
2023-04-09T05:28:16.813Z,8.37
2023-04-09T05:30:48.061Z,8.52
2023-04-09T05:33:16.436Z,8.66
2023-04-09T05:35:43.721Z,8.80
2023-04-09T05:38:11.174Z,8.91
2023-04-09T05:40:38.710Z,9.03
2023-04-09T05:43:11.329Z,9.08
2023-04-09T05:45:41.395Z,9.12
2023-04-09T05:48:08.694Z,9.24
2023-04-09T05:50:47.168Z,9.40
2023-04-09T05:53:21.749Z,9.59
2023-04-09T05:55:51.485Z,9.75
2023-04-09T05:58:22.168Z,9.85
2023-04-09T06:00:51.675Z,10.01
2023-04-09T06:03:19.824Z,10.15
2023-04-09T06:05:48.346Z,10.26
2023-04-09T06:08:15.424Z,10.38
2023-04-09T06:10:42.316Z,10.56
2023-04-09T06:13:10.243Z,10.74
2023-04-09T06:15:38.885Z,10.77
2023-04-09T06:18:05.959Z,10.90
2023-04-09T06:20:33.032Z,11.02
2023-04-09T06:22:59.969Z,11.14
2023-04-09T06:25:27.050Z,11.27
2023-04-09T06:27:53.961Z,11.33
2023-04-09T06:30:20.934Z,11.45
2023-04-09T06:32:54.653Z,11.55
2023-04-09T06:35:22.174Z,11.73
2023-04-09T06:37:49.153Z,11.75
2023-04-09T06:40:16.245Z,11.82
2023-04-09T06:42:43.165Z,11.93
2023-04-09T06:45:17.885Z,12.06
2023-04-09T06:47:44.934Z,12.16
2023-04-09T06:50:11.844Z,12.26
2023-04-09T06:52:38.830Z,12.22
2023-04-09T06:55:06.339Z,12.23
2023-04-09T06:57:33.348Z,12.35
2023-04-09T07:00:00.344Z,12.53
2023-04-09T07:02:28.047Z,12.62
2023-04-09T07:04:55.247Z,12.73
2023-04-09T07:07:24.299Z,12.81
2023-04-09T07:09:53.080Z,12.94
2023-04-09T07:12:32.702Z,13.00
2023-04-09T07:15:03.649Z,13.03
2023-04-09T07:17:31.368Z,13.05
2023-04-09T07:19:58.339Z,13.12
2023-04-09T07:22:26.802Z,13.28
2023-04-09T07:24:54.974Z,13.23
2023-04-09T07:27:26.012Z,13.17
2023-04-09T07:29:57.860Z,13.17
2023-04-09T07:32:25.569Z,13.28
2023-04-09T07:34:53.044Z,13.28
2023-04-09T07:37:20.819Z,13.33
2023-04-09T07:39:48.297Z,13.35
2023-04-09T07:42:15.450Z,13.44
2023-04-09T07:44:42.461Z,13.47
2023-04-09T07:47:09.512Z,13.46
2023-04-09T07:49:37.494Z,13.42
2023-04-09T07:52:04.832Z,13.44
2023-04-09T07:54:31.931Z,13.41
2023-04-09T07:56:59.434Z,13.45
2023-04-09T07:59:27.643Z,13.57
2023-04-09T08:01:54.684Z,13.68
2023-04-09T08:04:22.171Z,13.74
2023-04-09T08:06:51.515Z,13.77
2023-04-09T08:09:18.626Z,13.79
2023-04-09T08:11:46.227Z,13.72
2023-04-09T08:14:13.938Z,13.81
2023-04-09T08:16:42.350Z,13.79
2023-04-09T08:19:09.677Z,13.91
2023-04-09T08:21:43.060Z,13.98
2023-04-09T08:24:13.203Z,13.97
2023-04-09T08:26:40.629Z,14.10
2023-04-09T08:29:08.209Z,14.21
2023-04-09T08:31:36.651Z,14.27
2023-04-09T08:34:03.933Z,14.35
2023-04-09T08:36:31.837Z,14.40
2023-04-09T08:39:00.693Z,14.51
2023-04-09T08:41:30.921Z,14.50
2023-04-09T08:43:59.260Z,14.50
2023-04-09T08:46:27.319Z,14.49
2023-04-09T08:48:54.761Z,14.43
2023-04-09T08:51:23.079Z,14.44
2023-04-09T08:54:03.254Z,14.50
2023-04-09T08:56:31.133Z,14.45
2023-04-09T08:58:58.830Z,14.51
2023-04-09T09:01:27.480Z,14.48
2023-04-09T09:04:03.909Z,14.51
2023-04-09T09:06:41.185Z,14.63
2023-04-09T09:09:09.470Z,14.76
2023-04-09T09:11:37.769Z,14.92
2023-04-09T09:14:06.295Z,14.95
2023-04-09T09:16:34.997Z,14.78
2023-04-09T09:19:02.770Z,14.60
2023-04-09T09:21:30.260Z,14.40
2023-04-09T09:23:57.446Z,14.22
2023-04-09T09:26:25.955Z,14.08
2023-04-09T09:28:53.074Z,14.06
2023-04-09T09:31:21.230Z,14.11
2023-04-09T09:33:48.460Z,14.08
2023-04-09T09:36:34.642Z,14.01
2023-04-09T09:39:04.161Z,14.16
2023-04-09T09:41:31.352Z,14.16
2023-04-09T09:43:58.436Z,14.15
2023-04-09T09:46:26.480Z,14.34
2023-04-09T09:48:53.804Z,14.44
2023-04-09T09:51:22.810Z,14.58
2023-04-09T09:53:49.997Z,14.70
2023-04-09T09:56:27.119Z,14.92
2023-04-09T09:59:24.776Z,15.11
2023-04-09T10:02:01.419Z,15.02
2023-04-09T10:04:29.520Z,15.01
2023-04-09T10:06:56.813Z,15.10
2023-04-09T10:09:24.220Z,15.24
2023-04-09T10:11:51.303Z,15.29
2023-04-09T10:14:18.282Z,15.40
2023-04-09T10:16:45.531Z,15.49
2023-04-09T10:19:15.689Z,15.45
2023-04-09T10:21:53.497Z,15.45
2023-04-09T10:24:20.758Z,15.62
2023-04-09T10:26:47.777Z,15.79
2023-04-09T10:29:15.997Z,15.89
2023-04-09T10:32:03.542Z,15.91
2023-04-09T10:34:30.588Z,16.07
2023-04-09T10:36:58.076Z,16.11
2023-04-09T10:39:29.900Z,15.99
2023-04-09T10:41:59.609Z,15.94
2023-04-09T10:44:27.641Z,15.99
2023-04-09T10:46:55.188Z,15.85
2023-04-09T10:49:23.586Z,15.88
2023-04-09T10:52:12.635Z,15.87
2023-04-09T10:54:43.771Z,15.79
2023-04-09T10:57:11.476Z,15.84
2023-04-09T10:59:42.621Z,15.87
2023-04-09T11:02:13.807Z,15.83
2023-04-09T11:04:52.595Z,15.95
2023-04-09T11:07:19.520Z,16.07
2023-04-09T11:09:47.801Z,16.15
2023-04-09T11:12:14.726Z,16.19
2023-04-09T11:14:41.592Z,16.26
2023-04-09T11:17:08.579Z,16.25
2023-04-09T11:19:35.738Z,16.05
2023-04-09T11:22:06.988Z,15.99
2023-04-09T11:24:41.601Z,15.99
2023-04-09T11:27:08.910Z,15.91
2023-04-09T11:29:36.252Z,15.97
2023-04-09T11:32:05.324Z,15.95
2023-04-09T11:34:32.524Z,15.87
2023-04-09T11:36:59.941Z,15.90
2023-04-09T11:39:26.914Z,15.89
2023-04-09T11:41:53.871Z,15.83
2023-04-09T11:44:21.788Z,15.88
2023-04-09T11:46:49.244Z,15.81
2023-04-09T11:49:16.642Z,15.81
2023-04-09T11:51:43.740Z,15.75
2023-04-09T11:54:11.220Z,15.78
2023-04-09T11:56:38.212Z,15.59
2023-04-09T11:59:05.175Z,15.39
2023-04-09T12:01:33.081Z,15.32
2023-04-09T12:04:00.720Z,15.34
2023-04-09T12:06:28.658Z,15.41
2023-04-09T12:08:59.068Z,15.45
2023-04-09T12:11:30.024Z,15.55
2023-04-09T12:14:03.652Z,15.63
2023-04-09T12:16:34.614Z,15.60
2023-04-09T12:19:11.727Z,15.52
2023-04-09T12:21:58.627Z,15.53
2023-04-09T12:24:26.070Z,15.59
2023-04-09T12:26:53.138Z,15.74
2023-04-09T12:29:20.684Z,15.88
2023-04-09T12:31:47.795Z,15.93
2023-04-09T12:34:14.754Z,15.86
2023-04-09T12:36:41.792Z,15.75
2023-04-09T12:39:11.694Z,15.74
2023-04-09T12:41:38.632Z,15.55
2023-04-09T12:44:07.392Z,15.47
2023-04-09T12:46:34.326Z,15.41
2023-04-09T12:49:01.297Z,15.27
2023-04-09T12:51:28.671Z,15.12
2023-04-09T12:53:55.782Z,15.08
2023-04-09T12:56:22.915Z,15.07
2023-04-09T12:58:49.756Z,14.93
2023-04-09T13:01:17.138Z,14.81
2023-04-09T13:03:44.498Z,14.83
2023-04-09T13:06:11.692Z,14.71
2023-04-09T13:08:38.611Z,14.60
2023-04-09T13:11:06.027Z,14.59
2023-04-09T13:13:33.588Z,14.51
2023-04-09T13:16:00.579Z,14.53
2023-04-09T13:18:27.618Z,14.43
2023-04-09T13:20:54.553Z,14.48
2023-04-09T13:23:21.480Z,14.45
2023-04-09T13:25:48.378Z,14.45
2023-04-09T13:28:15.337Z,14.34
2023-04-09T13:30:42.268Z,14.32
2023-04-09T13:33:09.389Z,14.33
2023-04-09T13:35:36.493Z,14.31
2023-04-09T13:38:03.527Z,14.27
2023-04-09T13:40:30.545Z,14.19
2023-04-09T13:42:57.771Z,14.09
2023-04-09T13:45:24.690Z,13.96
2023-04-09T13:47:51.694Z,13.86
2023-04-09T13:50:18.817Z,13.79
2023-04-09T13:52:45.706Z,13.82
2023-04-09T13:55:12.647Z,13.74
2023-04-09T13:57:40.051Z,13.68
2023-04-09T14:00:08.285Z,13.64
2023-04-09T14:02:35.420Z,13.51
2023-04-09T14:05:04.099Z,13.41
2023-04-09T14:07:31.096Z,13.28
2023-04-09T14:09:58.228Z,13.19
2023-04-09T14:12:25.339Z,13.13
2023-04-09T14:14:52.397Z,13.10
2023-04-09T14:17:19.341Z,13.10
2023-04-09T14:19:46.362Z,13.04
2023-04-09T14:22:13.508Z,13.02
2023-04-09T14:24:40.514Z,12.95
2023-04-09T14:27:08.252Z,12.88
2023-04-09T14:29:35.377Z,12.81
2023-04-09T14:32:02.414Z,12.70
2023-04-09T14:34:30.286Z,12.65
2023-04-09T14:36:57.263Z,12.58
2023-04-09T14:39:24.283Z,12.52
2023-04-09T14:41:51.334Z,12.43
2023-04-09T14:44:18.247Z,12.34
2023-04-09T14:46:45.438Z,12.25
2023-04-09T14:49:12.554Z,12.19
2023-04-09T14:51:39.501Z,12.13
2023-04-09T14:54:06.803Z,12.04
2023-04-09T14:56:33.767Z,11.98
2023-04-09T14:59:00.762Z,11.95
2023-04-09T15:01:28.255Z,11.90
2023-04-09T15:03:55.722Z,11.86
2023-04-09T15:06:23.070Z,11.83
2023-04-09T15:08:50.014Z,11.78
2023-04-09T15:11:17.508Z,11.74
2023-04-09T15:13:44.628Z,11.63
2023-04-09T15:16:11.971Z,11.55
2023-04-09T15:18:38.951Z,11.46
2023-04-09T15:21:06.070Z,11.40
2023-04-09T15:23:35.612Z,11.35
2023-04-09T15:26:02.546Z,11.27
2023-04-09T15:28:29.493Z,11.19
2023-04-09T15:30:56.445Z,11.13
2023-04-09T15:33:23.509Z,11.10
2023-04-09T15:35:50.879Z,11.08
2023-04-09T15:38:17.918Z,11.01
2023-04-09T15:40:44.846Z,10.96
2023-04-09T15:43:11.759Z,10.90
2023-04-09T15:45:38.722Z,10.80
2023-04-09T15:48:06.132Z,10.67
2023-04-09T15:50:33.256Z,10.58
2023-04-09T15:53:00.498Z,10.50
2023-04-09T15:55:27.576Z,10.44
2023-04-09T15:57:55.197Z,10.37
2023-04-09T16:00:24.244Z,10.30
2023-04-09T16:02:53.044Z,10.22
2023-04-09T16:05:20.041Z,10.14
2023-04-09T16:07:47.013Z,10.11
2023-04-09T16:10:14.738Z,10.08
2023-04-09T16:12:41.903Z,10.00
2023-04-09T16:15:09.533Z,9.93
2023-04-09T16:17:40.992Z,9.92
2023-04-09T16:20:08.628Z,9.86
2023-04-09T16:22:35.863Z,9.79
2023-04-09T16:25:02.988Z,9.68
2023-04-09T16:27:29.989Z,9.58
2023-04-09T16:29:57.004Z,9.52
2023-04-09T16:32:24.067Z,9.50
2023-04-09T16:34:51.908Z,9.43
2023-04-09T16:37:18.816Z,9.36
2023-04-09T16:39:45.902Z,9.29
2023-04-09T16:42:13.067Z,9.19
2023-04-09T16:44:40.298Z,9.10
2023-04-09T16:47:08.324Z,9.05
2023-04-09T16:49:35.441Z,8.99
2023-04-09T16:52:02.460Z,8.97
2023-04-09T16:54:29.369Z,8.96
2023-04-09T16:56:58.601Z,8.96
2023-04-09T16:59:25.637Z,8.91
2023-04-09T17:01:52.859Z,8.89
2023-04-09T17:04:19.998Z,8.91
2023-04-09T17:06:47.276Z,8.92
2023-04-09T17:09:14.242Z,8.85
2023-04-09T17:11:42.368Z,8.86
2023-04-09T17:14:09.256Z,8.87
2023-04-09T17:16:38.204Z,8.87
2023-04-09T17:19:05.222Z,8.80
2023-04-09T17:21:32.270Z,8.72
2023-04-09T17:23:59.840Z,8.65
2023-04-09T17:26:26.917Z,8.59
2023-04-09T17:28:54.135Z,8.54
2023-04-09T17:31:24.237Z,8.45
2023-04-09T17:33:51.911Z,8.45
2023-04-09T17:36:20.022Z,8.44
2023-04-09T17:38:47.835Z,8.43
2023-04-09T17:41:14.735Z,8.38
2023-04-09T17:43:41.863Z,8.29
2023-04-09T17:46:09.155Z,8.18
2023-04-09T17:48:36.759Z,8.08
2023-04-09T17:51:04.326Z,7.98
2023-04-09T17:53:31.367Z,7.91
2023-04-09T17:55:58.442Z,7.87
2023-04-09T17:58:26.098Z,7.80
2023-04-09T18:00:53.940Z,7.74
2023-04-09T18:03:21.298Z,7.70
2023-04-09T18:05:48.737Z,7.65
2023-04-09T18:08:15.843Z,7.61
2023-04-09T18:10:42.790Z,7.59
2023-04-09T18:13:09.791Z,7.57
2023-04-09T18:15:37.253Z,7.60
2023-04-09T18:18:04.331Z,7.60
2023-04-09T18:20:31.448Z,7.60
2023-04-09T18:22:58.376Z,7.61
2023-04-09T18:25:25.591Z,7.67
2023-04-09T18:27:52.615Z,7.73
2023-04-09T18:30:19.645Z,7.79
2023-04-09T18:32:48.340Z,7.82
2023-04-09T18:35:15.702Z,7.81
2023-04-09T18:37:42.639Z,7.85
2023-04-09T18:40:12.330Z,7.88
2023-04-09T18:42:39.363Z,7.89
2023-04-09T18:45:06.564Z,7.90
2023-04-09T18:47:33.602Z,7.90
2023-04-09T18:50:00.684Z,7.89
2023-04-09T18:52:27.624Z,7.86
2023-04-09T18:54:54.825Z,7.80
2023-04-09T18:57:22.259Z,7.76
2023-04-09T18:59:49.175Z,7.72
2023-04-09T19:02:16.205Z,7.66
2023-04-09T19:04:43.595Z,7.62
2023-04-09T19:07:10.717Z,7.58
2023-04-09T19:09:38.627Z,7.54
2023-04-09T19:12:05.860Z,7.53
2023-04-09T19:14:32.801Z,7.52
2023-04-09T19:16:59.914Z,7.49
2023-04-09T19:19:29.072Z,7.46
2023-04-09T19:21:56.182Z,7.43
2023-04-09T19:24:25.959Z,7.43
2023-04-09T19:26:53.410Z,7.43
2023-04-09T19:29:20.862Z,7.44
2023-04-09T19:31:47.949Z,7.43
2023-04-09T19:34:15.754Z,7.39
2023-04-09T19:36:42.925Z,7.36
2023-04-09T19:39:11.095Z,7.30
2023-04-09T19:41:38.191Z,7.31
2023-04-09T19:44:07.384Z,7.30
2023-04-09T19:46:34.626Z,7.30
2023-04-09T19:49:01.734Z,7.26
2023-04-09T19:51:28.903Z,7.20
2023-04-09T19:53:56.466Z,7.19
2023-04-09T19:56:23.438Z,7.19
2023-04-09T19:58:50.410Z,7.18
2023-04-09T20:01:17.445Z,7.15
2023-04-09T20:03:44.698Z,7.05
2023-04-09T20:06:11.922Z,6.97
2023-04-09T20:08:39.162Z,6.88
2023-04-09T20:11:06.906Z,6.83
2023-04-09T20:13:34.225Z,6.85
2023-04-09T20:16:01.653Z,6.93
2023-04-09T20:18:28.876Z,6.94
2023-04-09T20:20:56.012Z,6.87
2023-04-09T20:23:22.945Z,6.77
2023-04-09T20:25:56.036Z,6.75
2023-04-09T20:28:23.214Z,6.73
2023-04-09T20:30:50.657Z,6.69
2023-04-09T20:33:18.088Z,6.66
2023-04-09T20:35:45.140Z,6.66
2023-04-09T20:38:12.032Z,6.61
2023-04-09T20:40:39.059Z,6.60
2023-04-09T20:43:06.543Z,6.60
2023-04-09T20:45:33.533Z,6.56
2023-04-09T20:48:01.262Z,6.55
2023-04-09T20:50:28.991Z,6.51
2023-04-09T20:52:56.151Z,6.49
2023-04-09T20:55:23.747Z,6.52
2023-04-09T20:57:50.683Z,6.56
2023-04-09T21:00:18.755Z,6.60
2023-04-09T21:02:45.957Z,6.63
2023-04-09T21:05:22.489Z,6.57
2023-04-09T21:07:51.902Z,6.43
2023-04-09T21:10:18.923Z,6.31
2023-04-09T21:12:46.053Z,6.26
2023-04-09T21:15:13.003Z,6.22
2023-04-09T21:17:40.124Z,6.24
2023-04-09T21:20:08.737Z,6.20
2023-04-09T21:22:36.075Z,6.18
2023-04-09T21:25:03.498Z,6.13
2023-04-09T21:27:31.266Z,6.03
2023-04-09T21:29:58.208Z,5.96
2023-04-09T21:32:25.422Z,5.98
2023-04-09T21:34:53.347Z,5.93
2023-04-09T21:37:20.272Z,5.91
2023-04-09T21:39:48.862Z,5.84
2023-04-09T21:42:16.029Z,5.85
2023-04-09T21:44:43.046Z,5.84
2023-04-09T21:47:12.177Z,5.74
2023-04-09T21:49:40.203Z,5.70
2023-04-09T21:52:14.357Z,5.62
2023-04-09T21:54:42.453Z,5.48
2023-04-09T21:57:09.887Z,5.41
2023-04-09T21:59:36.950Z,5.31
2023-04-09T22:02:04.776Z,5.20
2023-04-09T22:04:31.844Z,5.21
2023-04-09T22:06:58.857Z,5.24
2023-04-09T22:09:26.007Z,5.30
2023-04-09T22:11:53.629Z,5.36
2023-04-09T22:14:21.918Z,5.21
2023-04-09T22:16:48.836Z,5.16
2023-04-09T22:19:16.666Z,5.21
2023-04-09T22:21:43.568Z,5.23
2023-04-09T22:24:10.900Z,5.25
2023-04-09T22:26:39.140Z,5.27
2023-04-09T22:29:07.142Z,5.31
2023-04-09T22:31:34.057Z,5.36
2023-04-09T22:34:09.879Z,5.47
2023-04-09T22:36:44.429Z,5.62
2023-04-09T22:39:11.285Z,5.64
2023-04-09T22:41:38.640Z,5.65
2023-04-09T22:44:06.725Z,5.65
2023-04-09T22:46:34.831Z,5.46
2023-04-09T22:49:05.075Z,5.28
2023-04-09T22:51:34.737Z,5.18
2023-04-09T22:54:02.339Z,5.11
2023-04-09T22:56:31.770Z,5.14
2023-04-09T22:58:58.983Z,5.30
2023-04-09T23:01:26.543Z,5.48
2023-04-09T23:03:53.544Z,5.59
2023-04-09T23:06:21.861Z,5.62
2023-04-09T23:08:48.760Z,5.51
2023-04-09T23:11:15.800Z,5.50
2023-04-09T23:13:42.847Z,5.57
2023-04-09T23:16:10.230Z,5.66
2023-04-09T23:18:37.328Z,5.53
2023-04-09T23:21:10.715Z,5.39
2023-04-09T23:23:38.143Z,5.32
2023-04-09T23:26:05.467Z,5.31
2023-04-09T23:28:32.310Z,5.39
2023-04-09T23:30:59.429Z,5.50
2023-04-09T23:33:26.758Z,5.61
2023-04-09T23:35:54.102Z,5.61
2023-04-09T23:38:21.161Z,5.59
2023-04-09T23:40:48.932Z,5.65
2023-04-09T23:43:16.091Z,5.70
2023-04-09T23:45:43.857Z,5.71
2023-04-09T23:48:11.846Z,5.72
2023-04-09T23:50:41.749Z,5.51
2023-04-09T23:53:08.878Z,5.22
2023-04-09T23:55:40.827Z,5.04
2023-04-09T23:58:07.834Z,4.96
